createdAt,value
2023-03-07T00:00:50.434Z,5.77
2023-03-07T00:03:17.817Z,5.58
2023-03-07T00:05:44.720Z,5.57
2023-03-07T00:08:12.225Z,5.68
2023-03-07T00:10:38.953Z,5.72
2023-03-07T00:13:05.508Z,5.61
2023-03-07T00:15:32.100Z,5.49
2023-03-07T00:17:58.761Z,5.56
2023-03-07T00:20:25.366Z,5.39
2023-03-07T00:22:51.921Z,5.39
2023-03-07T00:25:18.615Z,5.25
2023-03-07T00:27:45.172Z,5.25
2023-03-07T00:32:46.997Z,5.25
2023-03-07T00:35:16.116Z,5.31
2023-03-07T00:37:42.805Z,5.38
2023-03-07T00:40:10.282Z,5.57
2023-03-07T00:42:36.847Z,5.76
2023-03-07T00:46:03.319Z,5.77
2023-03-07T00:48:52.336Z,5.60
2023-03-07T00:51:21.091Z,5.44
2023-03-07T00:53:48.606Z,5.42
2023-03-07T00:56:16.727Z,5.47
2023-03-07T00:58:43.843Z,5.32
2023-03-07T01:01:12.291Z,5.32
2023-03-07T01:06:16.379Z,5.31
2023-03-07T01:08:43.384Z,5.11
2023-03-07T01:11:10.830Z,5.25
2023-03-07T01:13:37.839Z,5.37
2023-03-07T01:16:25.354Z,5.59
2023-03-07T01:19:25.820Z,5.35
2023-03-07T01:22:42.316Z,5.37
2023-03-07T01:25:21.735Z,5.42
2023-03-07T01:28:21.599Z,5.37
2023-03-07T01:34:05.532Z,5.46
2023-03-07T01:36:55.499Z,5.33
2023-03-07T01:39:23.148Z,5.47
2023-03-07T01:41:49.743Z,5.37
2023-03-07T01:44:17.807Z,5.52
2023-03-07T01:46:55.239Z,5.56
2023-03-07T01:50:27.762Z,5.54
2023-03-07T01:53:01.913Z,5.60
2023-03-07T01:55:32.027Z,5.72
2023-03-07T01:58:04.406Z,5.69
2023-03-07T02:00:30.983Z,5.73
2023-03-07T02:03:10.783Z,5.97
2023-03-07T02:05:41.184Z,5.98
2023-03-07T02:10:49.956Z,6.20
2023-03-07T02:13:16.917Z,6.28
2023-03-07T02:15:43.644Z,6.27
2023-03-07T02:18:15.736Z,6.15
2023-03-07T02:20:42.208Z,6.19
2023-03-07T02:27:07.914Z,6.38
2023-03-07T02:29:34.580Z,6.36
2023-03-07T02:32:01.132Z,6.38
2023-03-07T02:34:30.845Z,6.36
2023-03-07T02:37:22.452Z,6.30
2023-03-07T02:39:49.097Z,6.29
2023-03-07T02:42:25.546Z,6.26
2023-03-07T02:45:01.027Z,6.29
2023-03-07T02:47:27.850Z,6.30
2023-03-07T02:49:55.120Z,6.26
2023-03-07T02:52:28.613Z,6.23
2023-03-07T02:54:55.806Z,6.23
2023-03-07T02:57:25.041Z,6.22
2023-03-07T02:59:51.667Z,6.24
2023-03-07T03:02:23.531Z,6.26
2023-03-07T03:05:09.856Z,6.24
2023-03-07T03:07:48.920Z,6.23
2023-03-07T03:10:16.303Z,6.22
2023-03-07T03:15:24.808Z,6.24
2023-03-07T03:17:54.930Z,6.24
2023-03-07T03:20:21.618Z,6.27
2023-03-07T03:22:48.223Z,6.20
2023-03-07T03:25:15.225Z,6.13
2023-03-07T03:27:42.051Z,6.18
2023-03-07T03:30:12.429Z,6.05
2023-03-07T03:32:40.231Z,5.74
2023-03-07T03:35:07.726Z,5.73
2023-03-07T03:38:18.602Z,5.80
2023-03-07T03:41:19.530Z,5.78
2023-03-07T03:43:46.301Z,5.83
2023-03-07T03:46:13.094Z,5.57
2023-03-07T03:48:40.661Z,5.68
2023-03-07T03:51:16.224Z,5.88
2023-03-07T03:53:42.803Z,5.79
2023-03-07T03:56:21.307Z,5.87
2023-03-07T03:58:53.326Z,5.91
2023-03-07T04:01:22.495Z,5.77
2023-03-07T04:03:51.292Z,5.89
2023-03-07T04:06:21.272Z,5.98
2023-03-07T04:09:00.544Z,6.00
2023-03-07T04:11:42.524Z,5.95
2023-03-07T04:14:09.137Z,5.95
2023-03-07T04:16:35.789Z,5.85
2023-03-07T04:19:02.784Z,5.93
2023-03-07T04:21:29.335Z,5.92
2023-03-07T04:23:58.311Z,5.97
2023-03-07T04:29:06.817Z,5.90
2023-03-07T04:31:33.452Z,5.82
2023-03-07T04:34:00.078Z,5.99
2023-03-07T04:36:26.839Z,6.11
2023-03-07T04:38:53.455Z,6.17
2023-03-07T04:45:27.603Z,6.30
2023-03-07T04:47:54.159Z,6.29
2023-03-07T04:50:20.973Z,6.24
2023-03-07T04:52:47.577Z,6.24
2023-03-07T04:55:15.012Z,6.17
2023-03-07T04:57:42.005Z,6.16
2023-03-07T05:00:10.215Z,6.18
2023-03-07T05:02:37.858Z,6.21
2023-03-07T05:05:05.645Z,6.22
2023-03-07T05:07:32.848Z,6.11
2023-03-07T05:09:59.629Z,6.04
2023-03-07T05:12:26.162Z,6.04
2023-03-07T05:14:55.256Z,6.13
2023-03-07T05:17:41.941Z,6.17
2023-03-07T05:20:14.145Z,6.17
2023-03-07T05:22:40.773Z,6.10
2023-03-07T05:25:10.639Z,6.04
2023-03-07T05:27:37.299Z,6.01
2023-03-07T05:30:05.842Z,6.05
2023-03-07T05:32:35.097Z,6.06
2023-03-07T05:35:12.427Z,6.07
2023-03-07T05:37:38.974Z,6.12
2023-03-07T05:40:15.371Z,6.18
2023-03-07T05:42:41.924Z,6.16
2023-03-07T05:45:17.589Z,6.17
2023-03-07T05:48:09.714Z,6.13
2023-03-07T05:50:46.703Z,6.21
2023-03-07T05:53:13.329Z,6.25
2023-03-07T05:55:39.877Z,6.24
2023-03-07T05:58:06.637Z,6.30
2023-03-07T06:00:33.250Z,6.36
2023-03-07T06:03:04.794Z,6.41
2023-03-07T06:05:31.484Z,6.50
2023-03-07T06:08:00.131Z,6.58
2023-03-07T06:10:27.113Z,6.62
2023-03-07T06:12:54.811Z,6.59
2023-03-07T06:15:24.613Z,6.51
2023-03-07T06:17:52.710Z,6.56
2023-03-07T06:20:20.968Z,6.49
2023-03-07T06:22:48.872Z,6.45
2023-03-07T06:25:16.888Z,6.46
2023-03-07T06:27:43.526Z,6.47
2023-03-07T06:30:12.343Z,6.43
2023-03-07T06:32:38.961Z,6.40
2023-03-07T06:35:06.024Z,6.43
2023-03-07T06:37:32.619Z,6.62
2023-03-07T06:39:59.190Z,6.80
2023-03-07T06:42:25.777Z,7.04
2023-03-07T06:44:52.314Z,7.15
2023-03-07T06:47:18.853Z,7.26
2023-03-07T06:54:56.049Z,7.82
2023-03-07T06:57:22.665Z,7.96
2023-03-07T06:59:49.205Z,8.08
2023-03-07T07:02:15.905Z,7.97
2023-03-07T07:04:42.523Z,7.99
2023-03-07T07:07:31.126Z,8.18
2023-03-07T07:10:19.404Z,7.55
2023-03-07T07:12:47.424Z,7.76
2023-03-07T07:15:13.986Z,7.78
2023-03-07T07:17:40.584Z,7.27
2023-03-07T07:20:11.278Z,7.65
2023-03-07T07:22:37.843Z,7.60
2023-03-07T07:25:04.926Z,7.73
2023-03-07T07:27:31.620Z,7.83
2023-03-07T07:29:58.235Z,8.37
2023-03-07T07:32:24.959Z,8.44
2023-03-07T07:34:51.681Z,8.53
2023-03-07T07:37:18.349Z,8.55
2023-03-07T07:39:45.299Z,8.93
2023-03-07T07:42:12.534Z,9.22
2023-03-07T07:44:39.107Z,9.27
2023-03-07T07:47:05.832Z,9.36
2023-03-07T07:49:32.468Z,9.49
2023-03-07T07:51:59.146Z,9.51
2023-03-07T07:57:22.642Z,9.61
2023-03-07T07:59:49.837Z,9.48
2023-03-07T08:02:16.441Z,9.52
2023-03-07T08:04:43.182Z,9.79
2023-03-07T08:07:09.810Z,9.82
2023-03-07T08:12:29.991Z,10.03
2023-03-07T08:15:24.579Z,9.78
2023-03-07T08:17:51.421Z,9.94
2023-03-07T08:20:22.268Z,10.03
2023-03-07T08:22:50.604Z,10.12
2023-03-07T08:25:33.714Z,10.34
2023-03-07T08:28:03.217Z,10.25
2023-03-07T08:30:32.114Z,9.91
2023-03-07T08:32:59.238Z,9.57
2023-03-07T08:35:27.312Z,10.02
2023-03-07T08:37:55.794Z,10.23
2023-03-07T08:40:24.860Z,10.29
2023-03-07T08:42:51.918Z,10.48
2023-03-07T08:45:18.586Z,10.56
2023-03-07T08:47:45.432Z,10.86
2023-03-07T08:50:12.359Z,10.91
2023-03-07T08:52:38.929Z,10.74
2023-03-07T08:55:06.033Z,10.89
2023-03-07T08:57:33.426Z,11.01
2023-03-07T09:00:08.850Z,10.82
2023-03-07T09:02:50.581Z,9.90
2023-03-07T09:05:39.143Z,9.86
2023-03-07T09:08:07.233Z,10.26
2023-03-07T09:10:35.345Z,10.83
2023-03-07T09:13:01.979Z,10.86
2023-03-07T09:15:28.587Z,10.68
2023-03-07T09:17:55.222Z,10.09
2023-03-07T09:20:22.194Z,10.43
2023-03-07T09:22:48.855Z,9.75
2023-03-07T09:25:15.469Z,10.25
2023-03-07T09:27:45.453Z,10.64
2023-03-07T09:30:13.680Z,10.83
2023-03-07T09:32:40.563Z,10.17
2023-03-07T09:35:25.940Z,10.45
2023-03-07T09:38:16.644Z,9.83
2023-03-07T09:41:09.735Z,10.89
2023-03-07T09:43:59.529Z,10.66
2023-03-07T09:47:11.661Z,11.37
2023-03-07T09:49:47.196Z,11.83
2023-03-07T09:52:17.888Z,11.80
2023-03-07T09:55:01.627Z,11.05
2023-03-07T09:57:31.662Z,11.59
2023-03-07T10:00:28.122Z,11.35
2023-03-07T10:03:04.092Z,11.08
2023-03-07T10:05:51.052Z,11.31
2023-03-07T10:09:05.498Z,11.80
2023-03-07T10:11:50.152Z,12.15
2023-03-07T10:14:25.222Z,11.89
2023-03-07T10:16:52.005Z,11.95
2023-03-07T10:19:58.921Z,12.08
2023-03-07T10:25:31.631Z,10.76
2023-03-07T10:28:11.885Z,10.52
2023-03-07T10:30:38.624Z,10.99
2023-03-07T10:33:16.187Z,11.81
2023-03-07T10:35:45.470Z,12.34
2023-03-07T10:38:18.144Z,11.86
2023-03-07T10:40:56.807Z,12.43
2023-03-07T10:43:27.361Z,12.80
2023-03-07T10:46:23.721Z,12.74
2023-03-07T10:49:04.092Z,13.24
2023-03-07T10:51:50.660Z,12.73
2023-03-07T10:54:20.906Z,12.53
2023-03-07T10:57:07.498Z,12.11
2023-03-07T10:59:35.233Z,11.22
2023-03-07T11:02:05.913Z,11.58
2023-03-07T11:04:45.706Z,11.47
2023-03-07T11:07:32.811Z,11.51
2023-03-07T11:10:01.865Z,11.56
2023-03-07T11:12:31.924Z,10.51
2023-03-07T11:15:12.204Z,10.82
2023-03-07T11:17:45.110Z,11.31
2023-03-07T11:20:25.654Z,11.10
2023-03-07T11:23:30.855Z,10.10
2023-03-07T11:26:18.738Z,10.13
2023-03-07T11:28:45.320Z,9.74
2023-03-07T11:31:26.353Z,9.66
2023-03-07T11:34:17.638Z,9.46
2023-03-07T11:36:48.738Z,9.84
2023-03-07T11:39:18.035Z,9.66
2023-03-07T11:41:54.886Z,10.12
2023-03-07T11:44:44.296Z,10.25
2023-03-07T11:48:03.097Z,10.12
2023-03-07T11:50:32.411Z,10.44
2023-03-07T11:53:01.784Z,10.83
2023-03-07T11:55:47.128Z,11.02
2023-03-07T11:58:52.789Z,10.89
2023-03-07T12:01:40.814Z,9.95
2023-03-07T12:04:34.806Z,11.15
2023-03-07T12:07:19.479Z,11.68
2023-03-07T12:10:20.137Z,11.64
2023-03-07T12:12:56.686Z,11.13
2023-03-07T12:16:11.678Z,11.13
2023-03-07T12:19:04.468Z,10.98
2023-03-07T12:24:57.557Z,9.80
2023-03-07T12:27:32.569Z,9.51
2023-03-07T12:30:04.870Z,9.84
2023-03-07T12:32:35.772Z,9.89
2023-03-07T12:35:25.673Z,10.64
2023-03-07T12:37:52.166Z,10.65
2023-03-07T12:40:23.432Z,10.66
2023-03-07T12:43:10.540Z,11.11
2023-03-07T12:45:51.201Z,10.95
2023-03-07T12:48:56.949Z,10.42
2023-03-07T12:51:36.945Z,9.55
2023-03-07T12:54:06.237Z,9.55
2023-03-07T12:56:43.929Z,9.43
2023-03-07T12:59:16.017Z,9.78
2023-03-07T13:02:08.908Z,9.47
2023-03-07T13:04:38.398Z,8.96
2023-03-07T13:07:37.299Z,8.70
2023-03-07T13:10:06.903Z,8.49
2023-03-07T13:12:35.772Z,8.51
2023-03-07T13:15:17.477Z,8.95
2023-03-07T13:17:43.968Z,8.60
2023-03-07T13:20:19.307Z,8.79
2023-03-07T13:22:45.876Z,8.98
2023-03-07T13:25:56.345Z,8.43
2023-03-07T13:29:00.233Z,7.99
2023-03-07T13:31:37.240Z,8.32
2023-03-07T13:34:54.798Z,8.56
2023-03-07T13:37:50.148Z,8.60
2023-03-07T13:40:48.948Z,8.57
2023-03-07T13:43:27.470Z,8.75
2023-03-07T13:45:58.986Z,8.76
2023-03-07T13:48:31.347Z,9.01
2023-03-07T13:51:06.666Z,9.06
2023-03-07T13:53:48.489Z,9.28
2023-03-07T13:56:19.992Z,8.38
2023-03-07T13:58:48.749Z,8.12
2023-03-07T14:02:03.914Z,8.18
2023-03-07T14:04:41.054Z,7.42
2023-03-07T14:07:28.088Z,8.05
2023-03-07T14:10:09.901Z,7.87
2023-03-07T14:13:11.919Z,7.95
2023-03-07T14:15:45.024Z,8.01
2023-03-07T14:18:29.584Z,7.68
2023-03-07T14:21:17.856Z,8.06
2023-03-07T14:24:05.900Z,7.71
2023-03-07T14:26:37.660Z,8.03
2023-03-07T14:29:23.854Z,7.86
2023-03-07T14:31:57.190Z,8.35
2023-03-07T14:34:30.888Z,8.10
2023-03-07T14:37:05.476Z,7.54
2023-03-07T14:39:48.414Z,8.02
2023-03-07T14:42:20.875Z,8.00
2023-03-07T14:44:58.702Z,8.33
2023-03-07T14:47:30.150Z,8.74
2023-03-07T14:50:15.874Z,8.94
2023-03-07T14:52:43.386Z,8.82
2023-03-07T14:55:19.919Z,8.60
2023-03-07T14:57:52.606Z,7.83
2023-03-07T15:00:25.356Z,8.40
2023-03-07T15:02:55.588Z,8.47
2023-03-07T15:05:28.138Z,8.30
2023-03-07T15:07:55.086Z,8.11
2023-03-07T15:10:40.718Z,7.99
2023-03-07T15:13:42.351Z,8.05
2023-03-07T15:16:16.021Z,7.73
2023-03-07T15:18:49.801Z,7.65
2023-03-07T15:21:20.030Z,7.89
2023-03-07T15:23:56.313Z,7.54
2023-03-07T15:26:26.343Z,7.40
2023-03-07T15:29:09.034Z,7.34
2023-03-07T15:31:53.582Z,7.07
2023-03-07T15:34:40.434Z,7.62
2023-03-07T15:37:26.948Z,8.03
2023-03-07T15:40:01.381Z,7.85
2023-03-07T15:42:29.019Z,7.68
2023-03-07T15:45:00.975Z,7.56
2023-03-07T15:47:29.999Z,7.45
2023-03-07T15:49:58.820Z,7.50
2023-03-07T15:52:37.634Z,8.02
2023-03-07T15:55:16.200Z,8.01
2023-03-07T15:57:52.600Z,8.68
2023-03-07T16:00:26.751Z,7.94
2023-03-07T16:02:53.421Z,8.52
2023-03-07T16:05:20.791Z,7.87
2023-03-07T16:07:49.205Z,8.13
2023-03-07T16:10:16.085Z,7.83
2023-03-07T16:12:46.602Z,8.05
2023-03-07T16:15:17.760Z,7.77
2023-03-07T16:17:45.012Z,7.95
2023-03-07T16:20:17.163Z,8.24
2023-03-07T16:22:44.482Z,8.14
2023-03-07T16:25:15.650Z,8.18
2023-03-07T16:27:51.645Z,7.59
2023-03-07T16:30:25.050Z,7.10
2023-03-07T16:32:52.341Z,6.60
2023-03-07T16:35:24.485Z,6.31
2023-03-07T16:37:51.546Z,7.03
2023-03-07T16:40:18.327Z,7.47
2023-03-07T16:42:46.848Z,7.56
2023-03-07T16:45:23.789Z,7.70
2023-03-07T16:47:58.653Z,7.92
2023-03-07T16:50:33.379Z,7.49
2023-03-07T16:53:00.428Z,6.98
2023-03-07T16:55:27.117Z,7.10
2023-03-07T16:58:03.100Z,7.40
2023-03-07T17:00:29.914Z,7.42
2023-03-07T17:02:59.923Z,7.24
2023-03-07T17:05:28.696Z,7.35
2023-03-07T17:07:57.293Z,7.57
2023-03-07T17:10:26.511Z,7.83
2023-03-07T17:12:55.085Z,7.87
2023-03-07T17:15:30.295Z,7.72
2023-03-07T17:17:58.025Z,7.79
2023-03-07T17:20:24.856Z,7.50
2023-03-07T17:22:52.319Z,7.80
2023-03-07T17:25:21.519Z,8.24
2023-03-07T17:28:08.453Z,8.36
2023-03-07T17:30:35.113Z,7.98
2023-03-07T17:33:01.809Z,7.98
2023-03-07T17:35:28.642Z,8.16
2023-03-07T17:37:55.716Z,8.17
2023-03-07T17:40:22.745Z,8.23
2023-03-07T17:42:51.130Z,8.33
2023-03-07T17:45:18.448Z,8.08
2023-03-07T17:47:45.035Z,8.15
2023-03-07T17:50:12.263Z,8.04
2023-03-07T17:52:38.845Z,7.79
2023-03-07T17:55:09.571Z,7.77
2023-03-07T17:57:36.771Z,7.62
2023-03-07T18:00:08.735Z,7.80
2023-03-07T18:02:35.363Z,7.66
2023-03-07T18:05:01.996Z,7.44
2023-03-07T18:07:28.609Z,6.94
2023-03-07T18:10:07.154Z,6.83
2023-03-07T18:12:39.238Z,7.05
2023-03-07T18:15:08.343Z,7.14
2023-03-07T18:17:46.948Z,6.85
2023-03-07T18:20:15.227Z,6.74
2023-03-07T18:22:42.864Z,7.01
2023-03-07T18:25:12.869Z,7.14
2023-03-07T18:27:39.504Z,6.73
2023-03-07T18:30:06.632Z,7.29
2023-03-07T18:32:34.283Z,7.45
2023-03-07T18:35:01.103Z,7.62
2023-03-07T18:37:39.546Z,7.67
2023-03-07T18:40:06.996Z,7.76
2023-03-07T18:42:34.302Z,7.85
2023-03-07T18:45:00.879Z,7.84
2023-03-07T18:47:27.468Z,7.89
2023-03-07T18:49:54.079Z,7.93
2023-03-07T18:52:20.700Z,7.91
2023-03-07T18:54:48.534Z,7.92
2023-03-07T18:57:15.275Z,8.02
2023-03-07T18:59:41.857Z,8.08
2023-03-07T19:02:10.147Z,8.08
2023-03-07T19:04:36.796Z,8.15
2023-03-07T19:07:04.102Z,8.13
2023-03-07T19:09:31.652Z,7.96
2023-03-07T19:11:58.288Z,8.18
2023-03-07T19:14:26.382Z,8.28
2023-03-07T19:16:53.168Z,8.37
2023-03-07T19:19:19.787Z,8.45
2023-03-07T19:21:46.345Z,8.28
2023-03-07T19:24:13.067Z,8.27
2023-03-07T19:26:40.944Z,8.04
2023-03-07T19:29:09.710Z,8.07
2023-03-07T19:31:36.442Z,7.83
2023-03-07T19:34:05.102Z,7.97
2023-03-07T19:36:35.235Z,8.02
2023-03-07T19:39:02.255Z,7.65
2023-03-07T19:41:31.437Z,7.71
2023-03-07T19:43:59.713Z,7.90
2023-03-07T19:46:26.922Z,7.37
2023-03-07T19:48:54.023Z,7.60
2023-03-07T19:51:23.362Z,7.82
2023-03-07T19:53:51.231Z,7.82
2023-03-07T19:56:22.260Z,8.04
2023-03-07T19:58:49.178Z,8.23
2023-03-07T20:01:21.544Z,8.46
2023-03-07T20:03:49.013Z,8.59
2023-03-07T20:06:20.005Z,8.66
2023-03-07T20:08:51.463Z,8.62
2023-03-07T20:11:20.554Z,8.51
2023-03-07T20:13:50.663Z,8.31
2023-03-07T20:16:20.377Z,8.45
2023-03-07T20:18:51.646Z,8.63
2023-03-07T20:21:19.941Z,8.37
2023-03-07T20:23:48.395Z,8.30
2023-03-07T20:26:24.791Z,8.38
2023-03-07T20:28:52.762Z,8.39
2023-03-07T20:31:20.334Z,8.35
2023-03-07T20:33:47.117Z,8.51
2023-03-07T20:36:19.503Z,8.17
2023-03-07T20:38:51.057Z,8.49
2023-03-07T20:41:20.982Z,7.87
2023-03-07T20:43:48.342Z,7.88
2023-03-07T20:46:16.892Z,8.23
2023-03-07T20:48:44.186Z,8.39
2023-03-07T20:51:23.347Z,8.56
2023-03-07T20:54:06.613Z,8.63
2023-03-07T20:56:34.431Z,8.77
2023-03-07T20:59:16.793Z,8.80
2023-03-07T21:01:56.973Z,8.63
2023-03-07T21:04:27.128Z,7.78
2023-03-07T21:06:53.782Z,8.27
2023-03-07T21:09:20.544Z,8.54
2023-03-07T21:12:00.757Z,8.56
2023-03-07T21:14:27.613Z,8.72
2023-03-07T21:16:54.171Z,8.40
2023-03-07T21:19:23.415Z,8.64
2023-03-07T21:21:49.976Z,8.75
2023-03-07T21:24:16.614Z,8.88
2023-03-07T21:26:43.375Z,8.88
2023-03-07T21:29:10.885Z,8.85
2023-03-07T21:31:38.805Z,8.91
2023-03-07T21:36:56.348Z,8.97
2023-03-07T21:39:24.203Z,8.56
2023-03-07T21:41:51.263Z,8.52
2023-03-07T21:44:18.004Z,8.34
2023-03-07T21:46:45.264Z,8.62
2023-03-07T21:49:36.629Z,8.63
2023-03-07T21:52:21.522Z,8.65
2023-03-07T21:54:48.114Z,8.50
2023-03-07T21:57:14.694Z,8.54
2023-03-07T21:59:41.508Z,8.36
2023-03-07T22:02:10.562Z,8.46
2023-03-07T22:04:37.248Z,8.45
2023-03-07T22:10:07.325Z,8.36
2023-03-07T22:15:29.326Z,8.07
2023-03-07T22:20:31.841Z,8.15
2023-03-07T22:24:18.111Z,7.97
2023-03-07T22:27:05.977Z,7.66
2023-03-07T22:29:33.067Z,7.52
2023-03-07T22:32:01.566Z,7.40
2023-03-07T22:34:29.380Z,7.45
2023-03-07T22:36:57.470Z,7.52
2023-03-07T22:39:39.435Z,7.59
2023-03-07T22:42:06.197Z,7.61
2023-03-07T22:44:32.796Z,7.50
2023-03-07T22:46:59.735Z,7.19
2023-03-07T22:49:30.387Z,7.05
2023-03-07T22:51:57.196Z,6.75
2023-03-07T22:54:23.911Z,6.41
2023-03-07T22:56:50.445Z,6.47
2023-03-07T22:59:17.023Z,6.20
2023-03-07T23:01:43.651Z,6.08
2023-03-07T23:04:25.754Z,6.00
2023-03-07T23:07:27.346Z,6.08
2023-03-07T23:09:53.919Z,6.29
2023-03-07T23:12:38.723Z,6.21
2023-03-07T23:15:05.722Z,5.82
2023-03-07T23:17:32.353Z,5.87
2023-03-07T23:19:58.963Z,6.02
2023-03-07T23:22:43.795Z,5.69
2023-03-07T23:25:11.279Z,5.85
2023-03-07T23:27:37.952Z,5.43
2023-03-07T23:30:06.351Z,5.55
2023-03-07T23:32:45.876Z,5.24
2023-03-07T23:38:12.112Z,4.93
2023-03-07T23:40:39.188Z,4.88
2023-03-07T23:43:06.441Z,4.66
2023-03-07T23:45:33.233Z,4.75
2023-03-07T23:47:59.790Z,4.59
2023-03-07T23:50:26.337Z,4.38
2023-03-07T23:52:58.241Z,4.62
2023-03-07T23:55:24.881Z,4.59
2023-03-07T23:57:51.598Z,4.59
